Time;durP1;ratioP1;P1;durP2;ratioP2;P2;SDS_P1;SDS_P2;PMS_P1;PMS_P2;Temp;Humidity;BMP_temperature;BMP_pressure;BME280_temperature;BME280_humidity;BME280_pressure;Samples;Min_cycle;Max_cycle;Signal;HPM_P1;HPM_P2
2022/11/12 00:00:07;;;;;;;4.85;4.03;;;15.60;86.10;;;;;;5030854;28;20087;-75
2022/11/12 00:02:33;;;;;;;5.63;4.20;;;15.60;86.20;;;;;;5032139;28;20025;-75
2022/11/12 00:04:58;;;;;;;5.35;4.35;;;15.60;86.10;;;;;;5014323;28;20104;-75
2022/11/12 00:07:24;;;;;;;5.70;4.00;;;15.60;86.20;;;;;;5031861;28;20458;-75
2022/11/12 00:09:50;;;;;;;5.90;4.30;;;15.60;86.10;;;;;;5030870;28;20083;-75
2022/11/12 00:12:15;;;;;;;6.20;4.13;;;15.60;86.00;;;;;;5031010;28;20022;-75
2022/11/12 00:14:41;;;;;;;8.68;4.50;;;15.60;86.10;;;;;;5031695;28;20030;-75
2022/11/12 00:17:06;;;;;;;4.93;3.97;;;15.60;86.10;;;;;;5030687;28;20022;-75
2022/11/12 00:19:32;;;;;;;7.63;4.70;;;15.60;86.20;;;;;;5031923;28;20403;-75
2022/11/12 00:21:58;;;;;;;6.50;3.90;;;15.60;86.10;;;;;;5031645;28;20025;-75
2022/11/12 00:24:23;;;;;;;5.72;4.05;;;15.60;86.00;;;;;;5033295;28;20040;-75
2022/11/12 00:26:49;;;;;;;4.90;3.88;;;15.60;86.00;;;;;;5035446;28;20021;-75
2022/11/12 00:29:14;;;;;;;5.28;4.05;;;15.60;86.10;;;;;;5035857;28;20033;-75
2022/11/12 00:31:40;;;;;;;6.35;4.00;;;15.60;87.10;;;;;;5035339;28;20025;-75
2022/11/12 00:34:06;;;;;;;7.07;4.78;;;15.50;86.00;;;;;;5034449;28;20400;-75
2022/11/12 00:36:32;;;;;;;6.40;4.28;;;15.60;86.00;;;;;;5034141;28;20022;-75
2022/11/12 00:38:58;;;;;;;5.18;3.95;;;15.50;86.00;;;;;;5035338;28;20029;-75
2022/11/12 00:41:23;;;;;;;5.82;4.70;;;15.50;86.00;;;;;;5035480;28;20075;-75
2022/11/12 00:43:49;;;;;;;5.13;4.32;;;15.60;86.00;;;;;;5034060;28;20025;-75
2022/11/12 00:46:14;;;;;;;5.75;4.07;;;15.60;86.00;;;;;;5043250;28;20025;-75
2022/11/12 00:48:40;;;;;;;6.22;4.50;;;15.50;86.00;;;;;;5054151;28;20029;-75
2022/11/12 00:51:06;;;;;;;6.05;4.60;;;15.50;86.00;;;;;;5039165;28;20025;-75
2022/11/12 00:53:31;;;;;;;7.88;4.63;;;15.60;86.00;;;;;;5035320;28;20033;-75
2022/11/12 00:56:04;;;;;;;5.25;4.18;;;15.50;86.00;;;;;;5035103;28;20024;-75
2022/11/12 00:58:31;;;;;;;7.85;4.22;;;15.50;86.00;;;;;;5017496;28;20050;-75
2022/11/12 01:00:57;;;;;;;5.43;4.15;;;15.50;86.00;;;;;;5017582;28;20017;-75
2022/11/12 01:03:23;;;;;;;5.30;4.38;;;15.50;86.00;;;;;;5035098;28;20017;-75
2022/11/12 01:05:48;;;;;;;5.35;4.40;;;15.50;86.00;;;;;;5017318;28;20514;-75
2022/11/12 01:08:14;;;;;;;6.25;4.50;;;15.50;86.00;;;;;;5034880;28;20475;-75
2022/11/12 01:10:39;;;;;;;5.22;4.30;;;15.50;86.00;;;;;;5033738;28;20111;-75
2022/11/12 01:13:05;;;;;;;5.20;4.20;;;15.50;86.00;;;;;;5033743;28;20104;-75
2022/11/12 01:15:31;;;;;;;8.05;4.60;;;15.50;86.00;;;;;;5033850;28;20026;-75
2022/11/12 01:17:56;;;;;;;7.60;4.13;;;15.50;86.00;;;;;;5034655;28;20071;-75
2022/11/12 01:20:22;;;;;;;6.40;4.55;;;15.50;86.00;;;;;;5033168;28;20053;-75
2022/11/12 01:22:47;;;;;;;6.90;4.65;;;15.50;86.00;;;;;;5034622;28;20029;-75
2022/11/12 01:25:13;;;;;;;6.10;4.68;;;15.50;86.00;;;;;;5033523;28;20029;-75
2022/11/12 01:27:39;;;;;;;5.47;4.25;;;15.50;86.00;;;;;;5034558;28;20113;-75
2022/11/12 01:30:05;;;;;;;4.95;4.15;;;15.50;86.00;;;;;;5033163;28;20396;-75
2022/11/12 01:32:34;;;;;;;5.07;4.20;;;15.50;86.00;;;;;;5016839;28;20033;-75
2022/11/12 01:35:00;;;;;;;6.10;4.85;;;15.50;86.00;;;;;;5033087;28;20029;-75
2022/11/12 01:37:25;;;;;;;5.47;4.28;;;15.50;86.00;;;;;;5033287;28;20079;-75
2022/11/12 01:39:51;;;;;;;4.95;3.95;;;15.50;86.00;;;;;;5034293;28;20033;-75
2022/11/12 01:42:17;;;;;;;5.88;4.57;;;15.50;86.00;;;;;;5034295;28;20026;-75
2022/11/12 01:44:43;;;;;;;6.97;4.65;;;15.50;86.00;;;;;;5033050;28;20388;-75
2022/11/12 01:47:20;;;;;;;6.65;5.05;;;15.50;86.00;;;;;;5049712;28;20060;-75
2022/11/12 01:49:52;;;;;;;6.00;4.38;;;15.50;86.00;;;;;;5033938;28;20020;-75
2022/11/12 01:52:30;;;;;;;5.70;4.68;;;15.50;86.00;;;;;;5033090;28;20033;-75
2022/11/12 01:55:01;;;;;;;4.88;4.05;;;15.50;86.00;;;;;;5032893;28;20033;-75
2022/11/12 01:57:30;;;;;;;6.97;5.05;;;15.40;86.00;;;;;;5032899;28;20045;-75
2022/11/12 01:59:57;;;;;;;7.60;4.60;;;15.50;86.00;;;;;;5016604;28;20051;-75
2022/11/12 02:02:23;;;;;;;5.43;4.05;;;15.50;86.00;;;;;;4999704;28;20025;-75
2022/11/12 02:04:49;;;;;;;5.53;4.47;;;15.50;86.00;;;;;;5016319;28;20032;-75
2022/11/12 02:07:14;;;;;;;6.07;4.72;;;15.50;86.00;;;;;;5032817;28;20021;-75
2022/11/12 02:09:40;;;;;;;6.50;4.65;;;15.40;86.00;;;;;;5016165;28;20034;-75
2022/11/12 02:12:05;;;;;;;7.50;4.53;;;15.50;86.00;;;;;;5016014;28;20499;-75
2022/11/12 02:14:31;;;;;;;5.80;4.28;;;15.40;85.90;;;;;;5016171;28;20025;-75
2022/11/12 02:16:57;;;;;;;6.57;4.80;;;15.40;85.90;;;;;;5033413;28;20044;-75
2022/11/12 02:19:22;;;;;;;5.75;4.68;;;15.40;85.90;;;;;;5032386;28;20515;-75
2022/11/12 02:21:48;;;;;;;7.65;4.63;;;15.40;85.90;;;;;;5033484;28;20028;-75
2022/11/12 02:24:14;;;;;;;7.43;5.22;;;15.40;85.90;;;;;;5015796;28;20476;-75
2022/11/12 02:26:41;;;;;;;5.88;4.25;;;15.40;86.00;;;;;;5033656;28;20022;-75
2022/11/12 02:29:07;;;;;;;7.68;4.82;;;15.40;85.90;;;;;;5032214;28;20030;-75
2022/11/12 02:31:33;;;;;;;5.78;4.40;;;15.40;85.90;;;;;;5032063;28;20025;-75
2022/11/12 02:33:58;;;;;;;5.05;4.40;;;15.40;86.00;;;;;;5033183;28;20531;-75
2022/11/12 02:36:24;;;;;;;6.00;4.65;;;15.40;85.90;;;;;;5033330;28;20080;-75
2022/11/12 02:38:50;;;;;;;5.57;4.82;;;15.40;85.90;;;;;;5033249;28;20036;-75
2022/11/12 02:41:15;;;;;;;5.68;4.45;;;15.40;85.90;;;;;;5032129;28;20029;-75
2022/11/12 02:43:41;;;;;;;5.32;4.63;;;15.40;86.00;;;;;;5031910;28;20507;-75
2022/11/12 02:46:07;;;;;;;6.15;4.47;;;15.40;86.00;;;;;;5039114;28;20017;-75
2022/11/12 02:48:32;;;;;;;6.70;5.07;;;15.40;86.00;;;;;;5051672;28;20024;-75
2022/11/12 02:50:58;;;;;;;6.72;4.65;;;15.40;85.90;;;;;;5050954;28;20028;-75
2022/11/12 02:53:23;;;;;;;6.03;4.32;;;15.40;86.00;;;;;;5031866;28;20380;-75
2022/11/12 02:55:49;;;;;;;5.15;4.35;;;15.40;85.90;;;;;;5031875;28;20507;-75
2022/11/12 02:58:15;;;;;;;6.35;4.75;;;15.40;86.00;;;;;;5015006;28;20045;-75
2022/11/12 03:00:40;;;;;;;7.43;4.70;;;15.40;85.90;;;;;;5032731;28;20025;-75
2022/11/12 03:03:06;;;;;;;6.32;4.90;;;15.40;85.90;;;;;;5031581;28;20036;-75
2022/11/12 03:05:34;;;;;;;6.15;4.82;;;15.40;85.90;;;;;;5031704;28;20029;-75
2022/11/12 03:08:04;;;;;;;6.43;5.20;;;15.40;85.90;;;;;;5031614;28;20071;-75
2022/11/12 03:10:30;;;;;;;7.57;4.53;;;15.40;86.00;;;;;;5015061;28;20116;-75
2022/11/12 03:12:57;;;;;;;8.30;4.93;;;15.40;86.00;;;;;;5014928;28;20107;-75
2022/11/12 03:15:22;;;;;;;7.03;5.13;;;15.40;86.00;;;;;;5015123;28;20084;-75
2022/11/12 03:17:48;;;;;;;5.55;4.57;;;15.40;85.90;;;;;;5014990;28;20040;-75
2022/11/12 03:20:14;;;;;;;5.38;4.53;;;15.40;85.90;;;;;;5031163;28;20022;-75
2022/11/12 03:22:39;;;;;;;7.20;5.10;;;15.40;86.00;;;;;;5031528;28;20018;-75
2022/11/12 03:25:06;;;;;;;6.57;4.72;;;15.40;85.90;;;;;;5031344;28;20021;-75
2022/11/12 03:27:31;;;;;;;8.23;5.15;;;15.40;85.90;;;;;;5031245;28;20041;-75
2022/11/12 03:29:57;;;;;;;6.63;4.75;;;15.40;86.00;;;;;;5030996;28;20120;-75
2022/11/12 03:32:23;;;;;;;6.75;5.28;;;15.40;85.90;;;;;;5031142;28;20096;-75
2022/11/12 03:34:48;;;;;;;7.15;5.13;;;15.30;85.90;;;;;;5032385;28;20026;-75
2022/11/12 03:37:14;;;;;;;6.57;5.10;;;15.40;85.90;;;;;;5032375;28;20025;-75
2022/11/12 03:39:39;;;;;;;7.93;5.43;;;15.30;85.90;;;;;;5031172;28;20029;-75
2022/11/12 03:42:05;;;;;;;6.55;5.20;;;15.30;85.90;;;;;;5030759;28;20034;-75
2022/11/12 03:44:31;;;;;;;8.30;5.00;;;15.30;85.90;;;;;;5030854;28;20040;-75
2022/11/12 03:46:56;;;;;;;7.07;5.07;;;15.30;85.90;;;;;;5046935;28;20033;-75
2022/11/12 03:49:22;;;;;;;9.90;5.15;;;15.30;85.90;;;;;;5050969;28;20502;-75
2022/11/12 03:51:48;;;;;;;7.00;5.05;;;15.40;85.90;;;;;;5052069;28;20036;-75
2022/11/12 03:54:13;;;;;;;8.98;5.32;;;15.30;85.90;;;;;;5035087;28;20029;-75
2022/11/12 03:56:39;;;;;;;8.48;5.30;;;15.30;86.00;;;;;;5014702;28;20073;-75
2022/11/12 03:59:05;;;;;;;6.88;4.80;;;15.30;85.90;;;;;;5016381;28;20037;-75
2022/11/12 04:01:30;;;;;;;7.25;5.07;;;15.30;85.90;;;;;;5018620;28;20029;-75
2022/11/12 04:03:56;;;;;;;7.63;4.95;;;15.30;85.90;;;;;;5035166;28;20099;-75
2022/11/12 04:09:06;;;;;;;5.70;4.63;;;15.30;85.90;;;;;;5034967;28;20086;-75
2022/11/12 04:11:31;;;;;;;9.63;5.40;;;15.30;86.00;;;;;;5036171;28;20108;-75
2022/11/12 04:13:57;;;;;;;8.07;5.78;;;15.30;86.00;;;;;;5034631;28;20059;-75
2022/11/12 04:22:08;;;;;;;7.30;5.32;;;15.30;85.90;;;;;;5021248;28;20080;-75
2022/11/12 04:27:27;;;;;;;8.38;5.95;;;15.30;86.00;;;;;;5034473;28;20570;-75
2022/11/12 04:32:38;;;;;;;7.72;5.32;;;15.30;86.00;;;;;;5034678;28;20091;-75
2022/11/12 04:35:05;;;;;;;6.85;5.38;;;15.30;86.00;;;;;;5001693;28;20399;-75
2022/11/12 04:37:43;;;;;;;9.20;5.80;;;15.30;85.90;;;;;;5034544;28;20104;-75
2022/11/12 04:45:56;;;;;;;9.23;5.80;;;15.30;86.00;;;;;;5013244;28;20446;-75
2022/11/12 04:48:23;;;;;;;10.05;5.78;;;15.30;86.00;;;;;;5036431;28;20502;-75
2022/11/12 04:50:51;;;;;;;7.78;5.07;;;15.30;86.00;;;;;;5036720;28;20491;-75
2022/11/12 04:53:16;;;;;;;7.43;5.20;;;15.20;85.90;;;;;;5036586;28;20111;-75
2022/11/12 04:55:42;;;;;;;8.73;5.75;;;15.30;86.00;;;;;;5052826;28;20108;-75
2022/11/12 04:58:08;;;;;;;8.38;5.50;;;15.30;86.00;;;;;;5035917;28;20519;-75
2022/11/12 05:00:33;;;;;;;8.00;5.63;;;15.20;86.00;;;;;;5036351;28;20391;-75
2022/11/12 05:02:59;;;;;;;9.48;5.30;;;15.20;85.90;;;;;;5036289;28;20128;-75
2022/11/12 05:05:25;;;;;;;7.50;5.32;;;15.20;85.90;;;;;;5036248;28;20033;-75
2022/11/12 05:07:50;;;;;;;6.97;5.55;;;15.30;86.00;;;;;;5036400;28;20055;-75
2022/11/12 05:10:16;;;;;;;8.70;5.40;;;15.20;85.90;;;;;;5035533;28;20048;-75
2022/11/12 05:12:42;;;;;;;8.20;5.93;;;15.20;85.90;;;;;;5036118;28;20047;-75
2022/11/12 05:15:08;;;;;;;8.13;5.07;;;15.20;85.90;;;;;;5036053;28;20467;-75
2022/11/12 05:17:34;;;;;;;7.40;5.47;;;15.20;86.00;;;;;;5052230;28;20033;-75
2022/11/12 05:20:00;;;;;;;8.18;5.28;;;15.20;85.90;;;;;;5036091;28;20025;-75
2022/11/12 05:22:25;;;;;;;8.43;5.43;;;15.20;85.90;;;;;;5032930;28;20091;-75
2022/11/12 05:24:51;;;;;;;8.80;5.97;;;15.20;85.90;;;;;;5034620;28;20087;-75
2022/11/12 05:27:19;;;;;;;9.70;6.07;;;15.20;85.90;;;;;;5033163;28;20033;-75
2022/11/12 05:29:44;;;;;;;8.57;5.65;;;15.20;85.90;;;;;;5033556;28;20050;-75
2022/11/12 05:32:12;;;;;;;6.75;4.32;;;15.20;85.90;;;;;;5033278;28;20053;-75
2022/11/12 05:34:37;;;;;;;7.20;5.30;;;15.20;85.90;;;;;;5033346;28;20018;-75
2022/11/12 05:37:04;;;;;;;6.43;4.88;;;15.20;86.00;;;;;;5033257;28;20036;-75
2022/11/12 05:39:30;;;;;;;7.63;4.75;;;15.20;85.90;;;;;;5033165;28;20121;-75
2022/11/12 05:41:55;;;;;;;7.20;4.97;;;15.20;86.00;;;;;;5033238;28;20490;-75
2022/11/12 05:44:21;;;;;;;8.90;5.47;;;15.20;86.00;;;;;;5033065;28;20093;-75
2022/11/12 05:46:47;;;;;;;7.47;5.32;;;15.20;86.00;;;;;;5033090;28;20399;-75
2022/11/12 05:49:12;;;;;;;6.38;4.80;;;15.20;86.00;;;;;;5033140;28;20033;-75
2022/11/12 05:51:38;;;;;;;11.05;5.25;;;15.20;86.00;;;;;;5032868;28;20404;-75
2022/11/12 05:54:04;;;;;;;7.18;5.22;;;15.20;86.00;;;;;;5032615;28;20022;-75
2022/11/12 05:56:29;;;;;;;6.68;5.15;;;15.20;86.00;;;;;;5032867;28;20121;-75
2022/11/12 05:58:55;;;;;;;7.03;4.82;;;15.20;86.00;;;;;;5032777;28;20067;-75
2022/11/12 06:01:21;;;;;;;8.75;5.15;;;15.20;86.10;;;;;;5032695;28;20448;-75
2022/11/12 06:03:46;;;;;;;10.32;4.93;;;15.20;86.00;;;;;;5034112;28;20017;-75
2022/11/12 06:06:12;;;;;;;7.05;5.13;;;15.20;86.00;;;;;;5032608;28;20039;-75
2022/11/12 06:08:38;;;;;;;6.53;4.82;;;15.20;86.00;;;;;;5032680;28;20022;-75
2022/11/12 06:11:03;;;;;;;7.90;5.18;;;15.20;86.00;;;;;;5033579;28;20029;-75
2022/11/12 06:13:29;;;;;;;6.15;4.72;;;15.20;86.10;;;;;;5032351;28;20386;-75
2022/11/12 06:15:55;;;;;;;6.97;4.72;;;15.20;86.00;;;;;;5032639;28;20030;-75
2022/11/12 06:18:21;;;;;;;7.40;4.85;;;15.20;86.10;;;;;;5036566;28;20395;-75
2022/11/12 06:21:18;;;;;;;7.85;4.90;;;15.20;86.10;;;;;;5035390;28;20035;-75
2022/11/12 06:23:32;;;;;;;7.60;5.30;;;15.20;86.10;;;;;;5053082;28;20546;-75
2022/11/12 06:25:58;;;;;;;6.82;4.72;;;15.20;86.10;;;;;;5053430;28;20036;-75
2022/11/12 06:28:24;;;;;;;8.68;5.47;;;15.20;86.10;;;;;;5052192;28;20051;-75
2022/11/12 06:30:49;;;;;;;6.07;4.20;;;15.20;86.10;;;;;;5052114;28;20057;-75
2022/11/12 06:33:15;;;;;;;6.75;4.95;;;15.20;86.10;;;;;;5053456;28;20066;-75
2022/11/12 06:35:41;;;;;;;7.50;4.72;;;15.20;86.10;;;;;;5053103;28;20564;-75
2022/11/12 06:38:06;;;;;;;6.82;4.70;;;15.20;86.10;;;;;;5051847;28;20021;-75
2022/11/12 06:40:32;;;;;;;7.75;4.43;;;15.20;86.10;;;;;;5051941;28;20029;-75
2022/11/12 06:42:58;;;;;;;7.90;4.90;;;15.20;86.10;;;;;;5051969;28;20129;-75
2022/11/12 06:45:24;;;;;;;5.80;4.45;;;15.20;86.10;;;;;;5049473;28;20032;-75
2022/11/12 06:47:49;;;;;;;7.38;4.80;;;15.20;86.20;;;;;;5031891;28;20109;-75
2022/11/12 06:50:15;;;;;;;9.02;4.65;;;15.20;86.10;;;;;;5031935;28;20559;-75
2022/11/12 06:52:41;;;;;;;6.03;4.43;;;15.20;86.10;;;;;;5032779;28;20028;-75
2022/11/12 06:55:07;;;;;;;7.38;4.18;;;15.20;86.10;;;;;;5041461;28;20029;-75
2022/11/12 06:57:33;;;;;;;7.75;4.90;;;15.20;86.10;;;;;;5052470;28;20084;-75
2022/11/12 06:59:59;;;;;;;5.93;4.28;;;15.20;86.10;;;;;;5051778;28;20025;-75
2022/11/12 07:02:24;;;;;;;6.70;4.93;;;15.20;86.10;;;;;;5051473;28;20040;-75
2022/11/12 07:04:50;;;;;;;6.93;4.68;;;15.20;86.10;;;;;;5051620;28;20021;-75
2022/11/12 07:07:16;;;;;;;7.80;5.25;;;15.20;86.10;;;;;;5052582;28;20032;-75
2022/11/12 07:09:41;;;;;;;5.80;4.40;;;15.20;86.10;;;;;;5051276;28;20488;-75
2022/11/12 07:12:07;;;;;;;9.00;4.80;;;15.20;86.10;;;;;;5052654;28;20103;-75
2022/11/12 07:14:33;;;;;;;5.18;3.95;;;15.20;86.10;;;;;;5051321;28;20029;-75
2022/11/12 07:16:58;;;;;;;5.43;4.18;;;15.20;87.20;;;;;;5051406;28;20390;-75
2022/11/12 07:19:24;;;;;;;7.43;5.00;;;15.20;86.10;;;;;;5034411;28;20448;-75
2022/11/12 07:21:50;;;;;;;7.38;5.18;;;15.20;86.10;;;;;;5052399;28;20025;-75
2022/11/12 07:24:15;;;;;;;7.10;4.65;;;15.20;86.10;;;;;;5051253;28;20083;-75
2022/11/12 07:26:41;;;;;;;5.55;4.50;;;15.20;86.20;;;;;;5051273;28;20389;-75
2022/11/12 07:29:07;;;;;;;6.63;4.50;;;15.20;86.10;;;;;;5051383;28;20032;-76
2022/11/12 07:31:32;;;;;;;5.93;4.53;;;15.20;86.10;;;;;;5052014;28;20040;-75
2022/11/12 07:33:59;;;;;;;6.55;4.90;;;15.20;86.10;;;;;;5052470;28;20029;-75
2022/11/12 07:36:25;;;;;;;5.72;4.05;;;15.20;86.10;;;;;;5050973;28;20017;-75
2022/11/12 07:38:51;;;;;;;7.25;4.10;;;15.20;86.20;;;;;;5051126;28;20400;-75
2022/11/12 07:41:19;;;;;;;5.20;4.18;;;15.20;86.10;;;;;;5051152;28;20017;-75
2022/11/12 07:43:46;;;;;;;5.75;3.92;;;15.20;86.20;;;;;;5052047;28;20025;-75
2022/11/12 07:46:15;;;;;;;5.47;4.30;;;15.10;86.00;;;;;;5026011;28;20017;-75
2022/11/12 07:48:41;;;;;;;5.47;4.18;;;15.10;86.10;;;;;;5030990;28;20049;-75
2022/11/12 07:51:18;;;;;;;5.47;4.22;;;15.10;86.00;;;;;;5031024;28;20081;-75
2022/11/12 07:53:43;;;;;;;6.00;4.30;;;15.20;86.10;;;;;;5032170;28;20045;-75
2022/11/12 07:56:10;;;;;;;5.93;4.18;;;15.10;86.10;;;;;;5039755;28;20114;-75
2022/11/12 07:58:36;;;;;;;6.82;4.18;;;15.10;86.10;;;;;;5050763;28;20503;-75
2022/11/12 08:01:14;;;;;;;4.43;3.60;;;15.10;86.00;;;;;;5052159;28;20025;-75
2022/11/12 08:03:40;;;;;;;6.03;4.45;;;15.10;86.10;;;;;;5051141;28;20123;-75
2022/11/12 08:06:06;;;;;;;4.80;4.05;;;15.10;86.10;;;;;;5051926;28;20108;-75
2022/11/12 08:08:31;;;;;;;5.55;4.60;;;15.10;86.10;;;;;;5052259;28;20078;-75
2022/11/12 08:10:57;;;;;;;5.78;4.10;;;15.10;86.10;;;;;;5050953;28;20108;-75
2022/11/12 08:13:23;;;;;;;5.90;4.10;;;15.10;86.10;;;;;;5034379;28;20086;-75
2022/11/12 08:15:49;;;;;;;5.05;3.72;;;15.20;86.20;;;;;;5051134;28;20033;-75
2022/11/12 08:18:15;;;;;;;5.97;4.72;;;15.10;86.10;;;;;;5034243;28;20057;-75
2022/11/12 08:20:40;;;;;;;5.93;3.92;;;15.10;86.10;;;;;;5033992;28;20025;-75
2022/11/12 08:23:06;;;;;;;4.40;4.00;;;15.10;86.10;;;;;;5051935;28;20105;-75
2022/11/12 08:25:32;;;;;;;6.35;4.10;;;15.10;86.10;;;;;;5050672;28;20033;-75
2022/11/12 08:27:58;;;;;;;6.93;4.22;;;15.10;86.10;;;;;;5052143;28;20052;-75
2022/11/12 08:30:27;;;;;;;4.35;3.95;;;15.20;86.20;;;;;;5050634;28;20548;-75
2022/11/12 08:32:57;;;;;;;4.85;4.22;;;15.10;86.10;;;;;;5050782;28;20044;-75
2022/11/12 08:35:24;;;;;;;4.85;3.85;;;15.10;86.20;;;;;;5017614;28;20467;-75
2022/11/12 08:37:49;;;;;;;8.35;4.22;;;15.10;86.10;;;;;;5050669;28;20400;-75
2022/11/12 08:40:15;;;;;;;4.63;3.70;;;15.10;86.10;;;;;;5050592;28;20037;-75
2022/11/12 08:42:40;;;;;;;6.95;3.97;;;15.10;86.10;;;;;;5051875;28;20017;-75
2022/11/12 08:45:07;;;;;;;5.90;3.92;;;15.10;86.20;;;;;;5052324;28;20140;-75
2022/11/12 08:47:32;;;;;;;5.25;3.80;;;15.10;86.20;;;;;;5034326;28;20033;-75
2022/11/12 08:49:58;;;;;;;6.18;4.03;;;15.10;86.20;;;;;;5035317;28;20025;-75
2022/11/12 08:52:23;;;;;;;5.47;4.00;;;15.10;86.20;;;;;;5035350;28;20483;-75
2022/11/12 08:54:49;;;;;;;6.10;3.90;;;15.10;86.20;;;;;;5017656;28;20029;-75
2022/11/12 08:57:15;;;;;;;6.90;3.85;;;15.10;86.20;;;;;;5046285;28;20052;-75
2022/11/12 08:59:40;;;;;;;5.45;3.88;;;15.10;86.20;;;;;;5054117;28;20075;-75
2022/11/12 09:02:11;;;;;;;4.90;3.65;;;15.10;86.20;;;;;;5055129;28;20081;-75
2022/11/12 09:04:37;;;;;;;5.15;3.45;;;15.10;86.20;;;;;;5037226;28;20023;-75
2022/11/12 09:07:03;;;;;;;5.95;4.22;;;15.10;86.20;;;;;;5053938;28;20041;-75
2022/11/12 09:09:28;;;;;;;5.40;3.92;;;15.10;86.20;;;;;;5054975;28;20032;-75
2022/11/12 09:11:54;;;;;;;5.30;3.75;;;15.10;86.20;;;;;;5054934;28;20029;-75
2022/11/12 09:14:19;;;;;;;5.13;3.85;;;15.10;86.20;;;;;;5037268;28;20029;-75
2022/11/12 09:16:45;;;;;;;4.90;3.75;;;15.10;86.20;;;;;;5036858;28;20421;-75
2022/11/12 09:19:11;;;;;;;5.32;3.30;;;15.10;86.20;;;;;;5054840;28;20063;-75
2022/11/12 09:21:36;;;;;;;6.40;3.97;;;15.10;86.20;;;;;;5053323;28;20075;-75
2022/11/12 09:24:02;;;;;;;5.05;3.83;;;15.10;86.20;;;;;;5053477;28;20056;-75
2022/11/12 09:26:28;;;;;;;6.88;4.03;;;15.10;86.20;;;;;;5053566;28;20120;-75
2022/11/12 09:28:53;;;;;;;5.18;3.85;;;15.10;86.20;;;;;;5053592;28;20085;-75
2022/11/12 09:31:19;;;;;;;4.70;3.70;;;15.10;86.20;;;;;;5054808;28;20056;-75
2022/11/12 09:33:45;;;;;;;4.25;3.55;;;15.10;86.20;;;;;;5054468;28;20024;-75
2022/11/12 09:36:11;;;;;;;4.22;3.50;;;15.10;86.20;;;;;;5053556;28;20021;-75
2022/11/12 09:38:36;;;;;;;5.07;3.55;;;15.10;86.20;;;;;;5053252;28;20025;-75
2022/11/12 09:41:10;;;;;;;4.38;3.55;;;15.10;86.30;;;;;;5053342;28;20235;-75
2022/11/12 09:43:48;;;;;;;5.95;3.72;;;15.10;86.20;;;;;;5053154;28;20418;-75
2022/11/12 09:46:37;;;;;;;5.32;3.53;;;15.10;86.30;;;;;;5028527;28;20369;-75
2022/11/12 09:49:17;;;;;;;5.75;3.85;;;15.10;86.30;;;;;;5033383;28;20025;-75
2022/11/12 09:52:03;;;;;;;4.25;3.42;;;15.10;86.30;;;;;;5032939;28;20025;-75
2022/11/12 09:54:32;;;;;;;6.72;3.67;;;15.10;86.30;;;;;;5033259;28;20018;-75
2022/11/12 09:56:58;;;;;;;4.45;3.38;;;15.10;87.30;;;;;;5032698;28;20053;-75
2022/11/12 09:59:28;;;;;;;4.22;3.38;;;15.10;86.30;;;;;;5054192;28;20392;-75
2022/11/12 10:01:55;;;;;;;4.75;3.67;;;15.10;86.30;;;;;;5036499;28;20021;-75
2022/11/12 10:04:39;;;;;;;5.47;3.58;;;15.10;86.30;;;;;;5036223;28;20084;-75
2022/11/12 10:07:30;;;;;;;5.22;3.63;;;15.10;86.30;;;;;;5053867;28;20029;-75
2022/11/12 10:10:14;;;;;;;4.88;3.70;;;15.10;86.30;;;;;;5037300;28;20021;-75
2022/11/12 10:12:59;;;;;;;5.22;3.60;;;15.10;86.40;;;;;;5052684;28;20024;-75
2022/11/12 10:18:43;;;;;;;4.30;3.60;;;15.10;86.40;;;;;;5052835;28;20039;-75
2022/11/12 10:21:27;;;;;;;4.60;3.60;;;15.10;86.30;;;;;;5052320;28;20029;-75
2022/11/12 10:23:52;;;;;;;6.13;3.97;;;15.10;86.40;;;;;;5053598;28;20163;-75
2022/11/12 10:26:20;;;;;;;4.38;3.50;;;15.10;86.30;;;;;;5052189;28;20451;-75
2022/11/12 10:28:54;;;;;;;5.75;3.80;;;15.10;86.30;;;;;;5053698;28;20027;-75
2022/11/12 10:31:20;;;;;;;5.32;3.88;;;15.10;86.40;;;;;;5052155;28;20029;-75
2022/11/12 10:33:46;;;;;;;4.90;3.30;;;15.10;86.40;;;;;;5052378;28;20021;-75
2022/11/12 10:36:33;;;;;;;4.10;3.28;;;15.10;86.30;;;;;;5035738;28;20032;-75
2022/11/12 10:38:58;;;;;;;4.65;3.70;;;15.10;86.40;;;;;;5038022;28;20013;-75
2022/11/12 10:41:32;;;;;;;7.57;3.85;;;15.10;86.40;;;;;;5035430;28;20039;-75
2022/11/12 10:44:02;;;;;;;5.68;3.47;;;15.10;86.40;;;;;;5036155;28;20032;-75
2022/11/12 10:46:30;;;;;;;4.20;3.30;;;15.10;86.40;;;;;;5041311;28;20029;-75
2022/11/12 10:49:07;;;;;;;5.25;3.58;;;15.10;86.40;;;;;;5031985;28;20032;-75
2022/11/12 10:51:34;;;;;;;6.75;3.47;;;15.10;86.40;;;;;;5033220;28;20033;-75
2022/11/12 10:54:26;;;;;;;3.50;3.20;;;15.10;86.40;;;;;;5031937;28;20023;-75
2022/11/12 10:56:52;;;;;;;3.55;3.05;;;15.10;86.40;;;;;;5031901;28;20099;-75
2022/11/12 10:59:22;;;;;;;6.28;3.50;;;15.10;87.00;;;;;;5050647;28;20033;-75
2022/11/12 11:01:58;;;;;;;4.63;3.10;;;15.10;86.40;;;;;;5035260;28;20032;-75
2022/11/12 11:04:33;;;;;;;5.13;3.58;;;15.10;86.40;;;;;;5051710;28;20051;-75
2022/11/12 11:07:17;;;;;;;3.95;3.55;;;15.10;86.40;;;;;;5034745;28;20068;-75
2022/11/12 11:09:56;;;;;;;4.45;3.65;;;15.10;86.40;;;;;;5037345;28;20029;-75
2022/11/12 11:12:27;;;;;;;5.07;3.47;;;15.10;86.40;;;;;;5051498;28;20029;-75
2022/11/12 11:15:16;;;;;;;7.65;3.50;;;15.10;86.40;;;;;;5034946;28;20536;-75
2022/11/12 11:17:42;;;;;;;3.85;3.20;;;15.10;86.40;;;;;;5036646;28;20017;-75
2022/11/12 11:20:27;;;;;;;4.60;3.72;;;15.10;86.40;;;;;;5051528;28;20032;-75
2022/11/12 11:23:02;;;;;;;3.78;3.38;;;15.10;86.50;;;;;;5051052;28;20029;-75
2022/11/12 11:25:28;;;;;;;4.78;3.20;;;15.10;86.50;;;;;;5035646;28;20017;-75
2022/11/12 11:28:18;;;;;;;3.80;2.95;;;15.10;86.50;;;;;;5034668;28;20021;-75
2022/11/12 11:31:06;;;;;;;3.40;2.80;;;15.10;86.50;;;;;;5051230;28;20021;-75
2022/11/12 11:33:54;;;;;;;5.15;3.53;;;15.10;86.50;;;;;;5050796;28;20037;-75
2022/11/12 11:36:52;;;;;;;4.85;3.35;;;15.10;86.50;;;;;;5051481;28;20030;-75
2022/11/12 11:39:32;;;;;;;4.65;3.10;;;15.20;86.60;;;;;;5033717;28;20112;-75
2022/11/12 11:42:21;;;;;;;5.53;3.25;;;15.20;86.60;;;;;;5050366;28;20041;-75
2022/11/12 11:44:58;;;;;;;3.50;3.20;;;15.10;86.50;;;;;;5033582;28;20171;-75
2022/11/12 11:47:42;;;;;;;3.80;2.97;;;15.20;86.60;;;;;;5033482;28;20108;-75
2022/11/12 11:50:18;;;;;;;4.00;3.08;;;15.20;86.60;;;;;;5001292;28;20033;-75
2022/11/12 11:53:29;;;;;;;6.07;3.88;;;15.20;86.70;;;;;;5033555;28;20029;-75
2022/11/12 11:56:02;;;;;;;3.95;3.20;;;15.20;86.60;;;;;;5041667;28;20116;-75
2022/11/12 11:58:39;;;;;;;4.88;3.45;;;15.20;86.70;;;;;;5009269;28;20096;-75
2022/11/12 12:01:38;;;;;;;4.47;3.10;;;15.20;86.70;;;;;;5013910;28;20025;-75
2022/11/12 12:04:22;;;;;;;4.28;3.38;;;15.20;86.70;;;;;;5030253;28;20046;-75
2022/11/12 12:07:10;;;;;;;5.32;3.35;;;15.20;86.70;;;;;;5030023;28;20029;-75
2022/11/12 12:09:50;;;;;;;3.53;2.95;;;15.20;86.70;;;;;;5013765;28;20037;-75
2022/11/12 12:12:41;;;;;;;4.75;3.00;;;15.20;86.80;;;;;;4996787;28;20025;-75
2022/11/12 12:15:06;;;;;;;5.80;3.55;;;15.20;86.80;;;;;;5014033;28;20029;-75
2022/11/12 12:17:38;;;;;;;4.80;3.45;;;15.20;86.80;;;;;;5032254;28;20103;-75
2022/11/12 12:20:15;;;;;;;4.72;2.92;;;15.20;86.80;;;;;;5034037;28;20026;-75
2022/11/12 12:22:47;;;;;;;4.10;3.28;;;15.20;86.90;;;;;;5018679;28;20018;-75
2022/11/12 12:25:20;;;;;;;4.57;3.05;;;15.30;86.90;;;;;;5035039;28;20537;-75
2022/11/12 12:28:25;;;;;;;6.15;3.85;;;15.30;86.90;;;;;;5018049;28;20108;-75
2022/11/12 12:30:52;;;;;;;5.85;3.30;;;15.20;86.90;;;;;;5050776;28;20045;-75
2022/11/12 12:33:27;;;;;;;4.15;3.50;;;15.20;86.90;;;;;;5034795;28;20021;-75
2022/11/12 12:35:54;;;;;;;3.63;3.28;;;15.30;87.00;;;;;;5035743;28;20044;-75
2022/11/12 12:38:32;;;;;;;4.25;3.53;;;15.20;86.90;;;;;;5017906;28;20403;-75
2022/11/12 12:41:28;;;;;;;3.80;3.40;;;15.30;87.00;;;;;;5035646;28;20041;-75
2022/11/12 12:44:05;;;;;;;3.80;3.33;;;15.30;87.00;;;;;;5050178;28;20049;-75
2022/11/12 12:46:35;;;;;;;5.25;3.20;;;15.30;87.10;;;;;;5034558;28;20022;-75
2022/11/12 12:49:01;;;;;;;4.30;3.10;;;15.30;87.10;;;;;;5034368;28;20068;-75
2022/11/12 12:51:28;;;;;;;6.10;3.38;;;15.30;87.10;;;;;;5034209;28;20076;-75
2022/11/12 12:53:54;;;;;;;4.25;3.05;;;15.30;87.10;;;;;;5034404;28;20014;-75
2022/11/12 12:56:23;;;;;;;3.78;2.88;;;15.30;87.10;;;;;;5033726;28;20032;-74
2022/11/12 12:58:49;;;;;;;7.65;3.92;;;15.30;87.20;;;;;;5035356;28;20506;-75
2022/11/12 13:01:23;;;;;;;5.18;3.33;;;15.40;87.20;;;;;;5034094;28;20022;-75
2022/11/12 13:03:50;;;;;;;5.07;3.20;;;15.40;87.30;;;;;;5035214;28;20384;-75
2022/11/12 13:06:23;;;;;;;4.10;3.30;;;15.40;87.20;;;;;;5017427;28;20159;-75
2022/11/12 13:09:11;;;;;;;4.75;3.13;;;15.40;87.20;;;;;;5034066;28;20036;-75
2022/11/12 13:12:20;;;;;;;4.22;3.17;;;15.40;87.20;;;;;;5033965;28;20434;-75
2022/11/12 13:14:43;;;;;;;4.75;3.10;;;15.40;87.20;;;;;;5034832;28;20041;-75
2022/11/12 13:17:10;;;;;;;4.18;3.03;;;15.40;87.30;;;;;;5033719;28;20491;-75